Terminal Aerodrome Forecast
Issued by NWS Wichita, KS

Home | Current Version | Previous Version | Text Only | Print | Product List | Glossary On
Versions: 1 2 3 4 5 6 7 8 9 10 11 12 13 14 15 16
671
FTUS43 KICT 251131
TAFICT
TAF
KICT 251131Z 2512/2612 16011KT P6SM FEW250
     FM251600 17018G26KT P6SM SCT250
     FM260000 14011KT P6SM BKN200
     FM260700 10008KT P6SM SCT200 WS020/19040KT
     FM261100 03008KT P6SM SCT015=

USA.gov is the U.S. government's official web portal to all federal, state and local government web resources and services.